.
WxDataArchive / Data Records for 2014-03-16
2014-03-15 March 2014 2014-03-17

Data Records for Sunday, 16 March 2014

Time	Temp	Chill	HIndex	Humid	Dewpt	 Wind 	HiWind	WindDir	Rain 	Barom
-----	----	-----	------	-----	-----	------	------	-------	-----	-----
00:00	30.7	30.7	30.7	65	20.3	0	2	22	0.00	30.202 
00:05	30.7	30.7	30.7	65	20.3	0	3	315	0.00	30.202 
00:10	30.6	30.6	30.6	66	20.6	0	3	315	0.00	30.202 
00:15	30.6	30.6	30.6	66	20.6	0	3	315	0.00	30.201 
00:20	30.4	30.4	30.4	66	20.4	0	3	315	0.00	30.201 
00:25	30.4	30.4	30.4	65	20.1	2	10	68	0.00	30.201 
00:30	30.6	30.6	30.6	64	19.9	2	4	68	0.00	30.196 
00:35	30.6	30.6	30.6	61	18.8	2	6	45	0.00	30.196 
00:40	30.4	30.4	30.4	60	18.2	1	4	112	0.00	30.196 
00:45	30.4	30.4	30.4	61	18.6	1	3	45	0.00	30.208 
00:50	30.1	30.1	30.1	62	18.7	0	3	90	0.00	30.208 
00:55	30.0	30.0	30.0	62	18.6	0	4	112	0.00	30.208 
01:00	29.8	29.8	29.8	62	18.4	0	2	112	0.00	30.221 
01:05	29.7	29.7	29.7	62	18.3	0	1	112	0.00	30.221 
01:10	29.4	29.4	29.4	63	18.4	0	3	112	0.00	30.221 
01:15	29.3	29.3	29.3	62	17.9	0	3	90	0.00	30.226 
01:20	29.1	29.1	29.1	59	16.6	0	2	90	0.00	30.226 
01:25	29.1	29.1	29.1	58	16.2	1	2	90	0.00	30.226 
01:30	29.1	29.1	29.1	56	15.4	1	3	90	0.00	30.225 
01:35	29.1	29.1	29.1	56	15.4	1	4	112	0.00	30.225 
01:40	29.1	29.1	29.1	56	15.4	1	4	112	0.00	30.225 
01:45	29.1	29.1	29.1	57	15.8	1	3	90	0.00	30.224 
01:50	29.1	29.1	29.1	57	15.8	1	4	68	0.00	30.224 
01:55	29.1	29.1	29.1	58	16.2	1	5	22	0.00	30.224 
02:00	29.3	29.3	29.3	58	16.4	0	2	90	0.00	30.230 
02:05	29.3	29.3	29.3	58	16.4	0	2	90	0.00	30.230 
02:10	29.3	29.3	29.3	58	16.4	2	7	68	0.00	30.230 
02:15	29.3	29.3	29.3	58	16.4	2	5	112	0.00	30.236 
02:20	29.4	29.4	29.4	58	16.5	2	5	90	0.00	30.236 
02:25	29.4	29.4	29.4	58	16.5	1	8	68	0.00	30.236 
02:30	29.5	29.5	29.5	58	16.6	2	9	45	0.00	30.233 
02:35	29.5	29.5	29.5	59	17.0	2	7	90	0.00	30.233 
02:40	29.4	29.4	29.4	58	16.5	2	14	90	0.00	30.233 
02:45	29.4	29.4	29.4	58	16.5	2	6	112	0.00	30.236 
02:50	29.4	29.4	29.4	58	16.5	1	4	112	0.00	30.236 
02:55	29.3	29.3	29.3	58	16.4	1	4	112	0.00	30.236 
03:00	29.3	29.3	29.3	58	16.4	1	4	45	0.00	30.242 
03:05	29.1	29.1	29.1	58	16.2	1	3	90	0.00	30.242 
03:10	29.1	29.1	29.1	59	16.6	1	5	90	0.00	30.242 
03:15	29.1	29.1	29.1	58	16.2	1	4	68	0.00	30.245 
03:20	29.0	29.0	29.0	58	16.1	1	6	112	0.00	30.245 
03:25	29.0	29.0	29.0	56	15.3	2	8	112	0.00	30.245 
03:30	28.8	28.8	28.8	52	13.4	2	10	45	0.00	30.238 
03:35	28.7	28.7	28.7	50	12.4	3	12	45	0.00	30.238 
03:40	28.7	28.7	28.7	51	12.9	3	12	112	0.00	30.238 
03:45	28.5	28.5	28.5	50	12.3	1	6	112	0.00	30.243 
03:50	28.4	28.4	28.4	48	11.2	3	7	45	0.00	30.243 
03:55	28.4	28.4	28.4	50	12.2	2	12	90	0.00	30.243 
04:00	28.2	28.2	28.2	51	12.4	1	5	90	0.00	30.242 
04:05	28.1	28.1	28.1	52	12.8	1	6	90	0.00	30.242 
04:10	28.1	28.1	28.1	52	12.8	1	6	112	0.00	30.242 
04:15	28.1	28.1	28.1	54	13.6	1	3	112	0.00	30.244 
04:20	28.1	28.1	28.1	55	14.0	1	2	0	0.00	30.244 
04:25	28.1	28.1	28.1	56	14.5	1	4	90	0.00	30.244 
04:30	27.9	23.3	27.9	54	13.4	4	11	112	0.00	30.239 
04:35	27.8	27.8	27.8	54	13.3	3	9	90	0.00	30.239 
04:40	27.6	27.6	27.6	54	13.2	2	9	22	0.00	30.239 
04:45	27.6	27.6	27.6	56	14.0	2	5	90	0.00	30.237 
04:50	27.5	27.5	27.5	57	14.3	2	10	112	0.00	30.237 
04:55	27.3	27.3	27.3	57	14.1	2	6	112	0.00	30.237 
05:00	27.0	27.0	27.0	56	13.4	2	6	112	0.00	30.240 
05:05	26.9	26.9	26.9	55	12.9	3	12	90	0.00	30.240 
05:10	26.7	26.7	26.7	55	12.7	3	11	68	0.00	30.240 
05:15	26.6	26.6	26.6	56	13.0	2	11	112	0.00	30.251 
05:20	26.4	26.4	26.4	57	13.3	3	10	45	0.00	30.251 
05:25	26.3	26.3	26.3	57	13.2	1	6	112	0.00	30.251 
05:30	26.3	26.3	26.3	58	13.6	1	4	112	0.00	30.255 
05:35	26.1	26.1	26.1	56	12.6	1	7	90	0.00	30.255 
05:40	26.1	26.1	26.1	56	12.6	1	5	90	0.00	30.255 
05:45	26.0	26.0	26.0	53	11.2	3	8	112	0.00	30.256 
05:50	25.7	25.7	25.7	54	11.4	3	12	90	0.00	30.256 
05:55	25.6	25.6	25.6	56	12.1	2	7	112	0.00	30.256 
06:00	25.4	25.4	25.4	58	12.7	3	11	112	0.00	30.253 
06:05	25.4	25.4	25.4	57	12.3	2	7	112	0.00	30.253 
06:10	25.3	25.3	25.3	57	12.2	1	5	112	0.00	30.253 
06:15	25.1	25.1	25.1	57	12.0	2	7	68	0.00	30.262 
06:20	25.0	25.0	25.0	57	11.9	2	7	22	0.00	30.262 
06:25	24.8	24.8	24.8	57	11.8	2	6	112	0.00	30.262 
06:30	24.7	24.7	24.7	57	11.7	3	9	45	0.00	30.262 
06:35	24.5	24.5	24.5	58	11.9	1	7	90	0.00	30.262 
06:40	24.2	24.2	24.2	54	10.0	3	9	112	0.00	30.262 
06:45	23.9	23.9	23.9	50	8.0	2	7	45	0.00	30.275 
06:50	23.8	23.8	23.8	47	6.5	2	10	90	0.00	30.275 
06:55	23.5	23.5	23.5	45	5.3	3	10	112	0.00	30.275 
07:00	23.3	23.3	23.3	49	7.0	2	9	112	0.00	30.279 
07:05	23.0	23.0	23.0	49	6.7	2	6	68	0.00	30.279 
07:10	22.9	22.9	22.9	48	6.2	2	5	90	0.00	30.279 
07:15	22.5	22.5	22.5	50	6.7	2	5	68	0.00	30.279 
07:20	22.5	22.5	22.5	52	7.6	1	6	90	0.00	30.279 
07:25	22.2	22.2	22.2	53	7.7	3	10	112	0.00	30.279 
07:30	22.1	22.1	22.1	55	8.4	2	7	112	0.00	30.278 
07:35	21.8	21.8	21.8	56	8.5	3	7	112	0.00	30.278 
07:40	21.6	21.6	21.6	55	8.0	2	8	112	0.00	30.278 
07:45	21.4	21.4	21.4	57	8.6	2	8	90	0.00	30.276 
07:50	21.4	21.4	21.4	59	9.3	1	5	90	0.00	30.276 
07:55	21.3	21.3	21.3	60	9.6	1	7	135	0.00	30.276 
08:00	21.1	21.1	21.1	61	9.8	1	5	90	0.00	30.282 
08:05	21.0	21.0	21.0	61	9.7	1	6	90	0.00	30.282 
08:10	20.8	20.8	20.8	62	9.9	1	4	90	0.00	30.282 
08:15	20.6	20.6	20.6	62	9.7	1	6	135	0.00	30.286 
08:20	20.5	20.5	20.5	64	10.3	1	4	68	0.00	30.286 
08:25	20.5	20.5	20.5	64	10.3	2	11	90	0.00	30.286 
08:30	20.3	20.3	20.3	64	10.1	2	11	45	0.00	30.294 
08:35	20.2	20.2	20.2	63	9.7	2	10	68	0.00	30.294 
08:40	20.2	20.2	20.2	64	10.0	3	9	90	0.00	30.294 
08:45	20.0	14.2	20.0	61	8.7	4	15	90	0.00	30.299 
08:50	20.0	20.0	20.0	60	8.4	3	11	112	0.00	30.299 
08:55	19.9	19.9	19.9	61	8.7	3	8	90	0.00	30.299 
09:00	19.9	19.9	19.9	62	9.0	2	9	112	0.00	30.306 
09:05	19.9	19.9	19.9	62	9.0	3	10	68	0.00	30.306 
09:10	19.9	19.9	19.9	62	9.0	3	11	90	0.00	30.306 
09:15	19.9	19.9	19.9	62	9.0	2	10	112	0.00	30.304 
09:20	19.9	19.9	19.9	63	9.4	3	11	68	0.00	30.304 
09:25	20.0	14.2	20.0	62	9.1	4	12	90	0.00	30.304 
09:30	20.2	13.2	20.2	62	9.3	5	14	90	0.00	30.308 
09:35	20.2	20.2	20.2	62	9.3	3	10	90	0.00	30.308 
09:40	20.0	13.0	20.0	62	9.1	5	16	90	0.00	30.308 
09:45	20.0	20.0	20.0	61	8.7	3	17	90	0.00	30.311 
09:50	19.9	14.1	19.9	61	8.7	4	17	90	0.00	30.311 
09:55	19.9	14.1	19.9	61	8.7	4	13	112	0.00	30.311 
10:00	19.9	11.8	19.9	61	8.7	6	18	112	0.00	30.309 
10:05	19.9	14.1	19.9	61	8.7	4	15	90	0.00	30.309 
10:10	19.7	11.6	19.7	62	8.8	6	16	112	0.00	30.309 
10:15	19.9	11.8	19.9	63	9.4	6	12	112	0.00	30.307 
10:20	19.7	11.6	19.7	64	9.5	6	15	90	0.00	30.307 
10:25	19.9	19.9	19.9	65	10.1	3	10	68	0.00	30.307 
10:30	19.9	19.9	19.9	64	9.7	3	11	112	0.00	30.324 
10:35	20.0	14.2	20.0	65	10.2	4	14	112	0.00	30.324 
10:40	20.0	13.0	20.0	65	10.2	5	15	90	0.00	30.324 
10:45	20.0	14.2	20.0	65	10.2	4	12	68	0.00	30.324 
10:50	19.7	11.6	19.7	65	9.9	6	15	112	0.00	30.324 
10:55	19.5	13.6	19.5	66	10.0	4	12	112	0.00	30.324 
11:00	19.5	12.4	19.5	67	10.4	5	12	112	0.00	30.329 
11:05	19.5	11.3	19.5	67	10.4	6	16	112	0.00	30.329 
11:10	19.5	12.4	19.5	67	10.4	5	12	112	0.00	30.329 
11:15	19.7	13.9	19.7	67	10.5	4	14	112	0.00	30.323 
11:20	19.5	10.4	19.5	67	10.4	7	14	90	0.00	30.323 
11:25	19.5	12.4	19.5	67	10.4	5	17	112	0.00	30.323 
11:30	19.5	13.6	19.5	67	10.4	4	14	22	0.00	30.337 
11:35	19.7	13.9	19.7	67	10.5	4	11	90	0.00	30.337 
11:40	19.9	19.9	19.9	67	10.7	3	11	112	0.00	30.337 
11:45	20.2	13.2	20.2	67	11.0	5	12	112	0.00	30.349 
11:50	20.2	14.4	20.2	67	11.0	4	13	112	0.00	30.349 
11:55	20.0	11.9	20.0	67	10.8	6	15	112	0.00	30.349 
12:00	19.9	10.1	19.9	67	10.7	8	19	112	0.00	30.351 
12:05	19.7	11.6	19.7	67	10.5	6	18	90	0.00	30.351 
12:10	20.0	20.0	20.0	68	11.2	3	10	112	0.00	30.351 
12:15	20.2	14.4	20.2	68	11.4	4	14	112	0.00	30.352 
12:20	20.0	13.0	20.0	67	10.8	5	13	112	0.00	30.352 
12:25	20.0	20.0	20.0	68	11.2	3	11	90	0.00	30.352 
12:30	20.2	20.2	20.2	68	11.4	3	12	90	0.00	30.348 
12:35	20.3	14.6	20.3	69	11.8	4	13	90	0.00	30.348 
12:40	20.3	14.6	20.3	68	11.5	4	12	112	0.00	30.348 
12:45	20.5	14.8	20.5	68	11.6	4	12	90	0.00	30.345 
12:50	20.5	14.8	20.5	68	11.6	4	13	90	0.00	30.345 
12:55	20.8	15.1	20.8	67	11.6	4	12	112	0.00	30.345 
13:00	21.0	21.0	21.0	67	11.8	3	11	112	0.00	30.343 
13:05	21.1	21.1	21.1	66	11.5	3	11	112	0.00	30.343 
13:10	21.3	21.3	21.3	66	11.7	3	11	112	0.00	30.343 
13:15	21.4	14.6	21.4	65	11.5	5	14	90	0.00	30.337 
13:20	21.6	16.1	21.6	65	11.7	4	13	90	0.00	30.337 
13:25	21.9	21.9	21.9	65	12.0	3	7	112	0.00	30.337 
13:30	22.2	16.8	22.2	62	11.2	4	13	90	0.00	30.334 
13:35	22.2	16.8	22.2	61	10.8	4	13	90	0.00	30.334 
13:40	22.5	17.1	22.5	61	11.1	4	11	112	0.00	30.334 
13:45	22.5	14.9	22.5	58	10.0	6	15	112	0.00	30.321 
13:50	22.4	13.9	22.4	56	9.1	7	17	90	0.00	30.321 
13:55	22.4	15.8	22.4	55	8.7	5	12	112	0.00	30.321 
14:00	22.4	14.8	22.4	53	7.9	6	18	112	0.00	30.309 
14:05	22.4	14.8	22.4	55	8.7	6	17	90	0.00	30.309 
14:10	23.0	16.5	23.0	55	9.3	5	12	112	0.00	30.309 
14:15	23.8	17.4	23.8	56	10.4	5	12	90	0.00	30.295 
14:20	23.6	13.9	23.6	54	9.4	9	17	112	0.00	30.295 
14:25	23.5	15.3	23.5	56	10.1	7	17	112	0.00	30.295 
14:30	23.5	16.1	23.5	55	9.7	6	17	112	0.00	30.285 
14:35	23.8	17.4	23.8	56	10.4	5	14	90	0.00	30.285 
14:40	23.3	13.6	23.3	56	10.0	9	17	112	0.00	30.285 
14:45	23.0	15.5	23.0	58	10.5	6	17	112	0.00	30.272 
14:50	23.5	15.3	23.5	60	11.7	7	16	112	0.00	30.272 
14:55	23.6	17.2	23.6	59	11.4	5	13	90	0.00	30.272 
15:00	23.5	18.3	23.5	60	11.7	4	11	68	0.00	30.261 
15:05	23.3	16.9	23.3	58	10.7	5	15	112	0.00	30.261 
15:10	23.6	16.2	23.6	57	10.6	6	15	90	0.00	30.261 
15:15	23.8	15.6	23.8	57	10.8	7	20	112	0.00	30.251 
15:20	24.1	17.8	24.1	59	11.9	5	16	112	0.00	30.251 
15:25	24.4	19.3	24.4	59	12.2	4	11	68	0.00	30.251 
15:30	23.9	15.0	23.9	59	11.7	8	17	112	0.00	30.247 
15:35	23.9	16.6	23.9	58	11.3	6	17	90	0.00	30.247 
15:40	23.9	18.7	23.9	59	11.7	4	12	112	0.00	30.247 
15:45	24.1	17.8	24.1	57	11.1	5	14	90	0.00	30.244 
15:50	24.1	17.8	24.1	58	11.5	5	16	112	0.00	30.244 
15:55	23.6	17.2	23.6	56	10.2	5	13	90	0.00	30.244 
16:00	23.3	15.9	23.3	58	10.7	6	19	112	0.00	30.245 
16:05	23.2	15.8	23.2	58	10.6	6	13	112	0.00	30.245 
16:10	23.0	14.7	23.0	57	10.1	7	16	90	0.00	30.245 
16:15	22.9	13.8	22.9	58	10.4	8	18	112	0.00	30.243 
16:20	23.0	17.7	23.0	58	10.5	4	12	90	0.00	30.243 
16:25	23.0	17.7	23.0	58	10.5	4	11	90	0.00	30.243 
16:30	23.2	17.9	23.2	58	10.6	4	11	112	0.00	30.246 
16:35	23.2	16.7	23.2	58	10.6	5	14	112	0.00	30.246 
16:40	23.2	16.7	23.2	58	10.6	5	18	90	0.00	30.246 
16:45	23.0	14.7	23.0	56	9.7	7	17	112	0.00	30.243 
16:50	23.3	15.0	23.3	57	10.3	7	15	90	0.00	30.243 
16:55	23.5	16.1	23.5	57	10.5	6	14	112	0.00	30.243 
17:00	23.6	16.2	23.6	59	11.4	6	15	90	0.00	30.241 
17:05	23.9	17.6	23.9	56	10.5	5	15	112	0.00	30.241 
17:10	24.1	17.8	24.1	54	9.9	5	13	112	0.00	30.241 
17:15	23.9	17.6	23.9	57	10.9	5	15	112	0.00	30.230 
17:20	23.8	18.6	23.8	57	10.8	4	15	112	0.00	30.230 
17:25	23.5	17.1	23.5	56	10.1	5	16	112	0.00	30.230 
17:30	23.3	15.0	23.3	55	9.6	7	17	112	0.00	30.222 
17:35	23.2	14.1	23.2	54	9.1	8	17	112	0.00	30.222 
17:40	23.0	13.2	23.0	55	9.3	9	17	112	0.00	30.222 
17:45	23.3	18.0	23.3	57	10.3	4	13	112	0.00	30.219 
17:50	23.5	18.3	23.5	56	10.1	4	11	90	0.00	30.219 
17:55	23.5	17.1	23.5	57	10.5	5	16	90	0.00	30.219 
18:00	23.3	18.0	23.3	57	10.3	4	14	90	0.00	30.215 
18:05	23.0	13.9	23.0	55	9.3	8	17	90	0.00	30.215 
18:10	22.9	14.5	22.9	55	9.2	7	17	90	0.00	30.215 
18:15	22.9	17.6	22.9	56	9.6	4	13	90	0.00	30.216 
18:20	22.9	15.4	22.9	55	9.2	6	15	112	0.00	30.216 
18:25	22.9	22.9	22.9	56	9.6	3	10	112	0.00	30.216 
18:30	23.0	23.0	23.0	56	9.7	3	11	90	0.00	30.216 
18:35	23.0	23.0	23.0	56	9.7	3	12	90	0.00	30.216 
18:40	23.0	17.7	23.0	56	9.7	4	13	112	0.00	30.216 
18:45	22.9	22.9	22.9	55	9.2	3	14	68	0.00	30.209 
18:50	22.5	15.9	22.5	54	8.4	5	15	112	0.00	30.209 
18:55	22.5	17.1	22.5	54	8.4	4	11	90	0.00	30.209 
19:00	22.5	22.5	22.5	55	8.8	2	10	22	0.00	30.210 
19:05	22.4	22.4	22.4	56	9.1	3	10	90	0.00	30.210 
19:10	22.4	15.8	22.4	55	8.7	5	16	112	0.00	30.210 
19:15	22.2	15.6	22.2	55	8.5	5	13	112	0.00	30.217 
19:20	22.1	22.1	22.1	55	8.4	2	9	90	0.00	30.217 
19:25	21.9	21.9	21.9	55	8.2	3	12	112	0.00	30.217 
19:30	21.9	16.4	21.9	55	8.2	4	12	112	0.00	30.213 
19:35	21.9	16.4	21.9	55	8.2	4	12	90	0.00	30.213 
19:40	21.8	21.8	21.8	55	8.1	3	10	90	0.00	30.213 
19:45	21.6	16.1	21.6	54	7.6	4	13	112	0.00	30.210 
19:50	21.6	21.6	21.6	55	8.0	2	6	112	0.00	30.210 
19:55	21.4	21.4	21.4	55	7.8	2	8	112	0.00	30.210 
20:00	21.4	21.4	21.4	56	8.2	2	9	112	0.00	30.214 
20:05	21.3	21.3	21.3	55	7.7	2	9	112	0.00	30.214 
20:10	21.3	21.3	21.3	57	8.5	3	10	90	0.00	30.214 
20:15	21.1	21.1	21.1	58	8.7	2	7	112	0.00	30.207 
20:20	21.1	21.1	21.1	58	8.7	2	13	90	0.00	30.207 
20:25	21.0	13.1	21.0	58	8.6	6	13	112	0.00	30.207 
20:30	20.8	13.9	20.8	58	8.4	5	16	90	0.00	30.206 
20:35	20.6	14.9	20.6	58	8.2	4	11	112	0.00	30.206 
20:40	20.5	14.8	20.5	59	8.5	4	10	112	0.00	30.206 
20:45	20.5	20.5	20.5	59	8.5	3	9	90	0.00	30.207 
20:50	20.3	13.3	20.3	58	7.9	5	13	112	0.00	30.207 
20:55	20.0	14.2	20.0	58	7.6	4	11	112	0.00	30.207 
21:00	19.9	19.9	19.9	58	7.5	3	10	112	0.00	30.207 
21:05	19.9	14.1	19.9	58	7.5	4	11	90	0.00	30.207 
21:10	19.7	19.7	19.7	59	7.7	2	6	112	0.00	30.207 
21:15	19.5	13.6	19.5	59	7.5	4	10	90	0.00	30.206 
21:20	19.4	12.3	19.4	58	7.1	5	13	112	0.00	30.206 
21:25	19.2	12.0	19.2	58	6.9	5	22	90	0.00	30.206 
21:30	19.2	12.0	19.2	58	6.9	5	15	112	0.00	30.206 
21:35	19.1	19.1	19.1	59	7.2	3	12	90	0.00	30.206 
21:40	18.9	18.9	18.9	59	7.0	2	7	112	0.00	30.206 
21:45	18.9	18.9	18.9	59	7.0	2	11	45	0.00	30.206 
21:50	18.8	18.8	18.8	59	6.9	2	7	45	0.00	30.206 
21:55	18.6	18.6	18.6	59	6.7	2	7	90	0.00	30.206 
22:00	18.6	18.6	18.6	59	6.7	1	5	135	0.00	30.204 
22:05	18.4	18.4	18.4	59	6.5	1	5	22	0.00	30.204 
22:10	18.3	18.3	18.3	58	6.0	2	9	112	0.00	30.204 
22:15	18.1	10.7	18.1	57	5.5	5	13	112	0.00	30.194 
22:20	18.1	18.1	18.1	58	5.8	2	6	90	0.00	30.194 
22:25	18.0	18.0	18.0	58	5.7	1	4	90	0.00	30.194 
22:30	17.8	17.8	17.8	59	5.9	2	7	90	0.00	30.193 
22:35	17.8	17.8	17.8	60	6.3	2	6	112	0.00	30.193 
22:40	17.7	17.7	17.7	60	6.2	3	10	112	0.00	30.193 
22:45	17.7	17.7	17.7	61	6.6	3	11	112	0.00	30.199 
22:50	17.5	11.3	17.5	62	6.7	4	12	90	0.00	30.199 
22:55	17.5	17.5	17.5	63	7.1	3	11	90	0.00	30.199 
23:00	17.5	17.5	17.5	64	7.4	3	10	112	0.00	30.192 
23:05	17.3	17.3	17.3	65	7.6	2	5	112	0.00	30.192 
23:10	17.3	17.3	17.3	65	7.6	3	8	112	0.00	30.192 
23:15	17.3	17.3	17.3	65	7.6	3	11	90	0.00	30.194 
23:20	17.2	17.2	17.2	66	7.8	2	8	112	0.00	30.194 
23:25	17.2	17.2	17.2	67	8.2	1	6	90	0.00	30.194 
23:30	17.2	11.0	17.2	67	8.2	4	13	112	0.00	30.198 
23:35	17.2	17.2	17.2	67	8.2	2	7	90	0.00	30.198 
23:40	17.0	17.0	17.0	67	8.0	3	8	112	0.00	30.198 
23:45	17.0	17.0	17.0	67	8.0	2	8	112	0.00	30.184 
23:50	17.0	10.7	17.0	68	8.3	4	10	112	0.00	30.184 
23:55	16.9	16.9	16.9	68	8.2	2	7	90	0.00	30.184 

CoCoRaHS
IN-AL-39
A2 Web Hosting
Creative Commons License
GoDaddy
search engine by freefind advanced

loaded 2018-11-12 19:30:41 • last modified 2010-11-18 10:43:29
Privacy PolicyDisclaimer
• wx.awcolley.com is powered by PmWiki v.2002016 •
• all content (unless otherwise noted) © 2018 A W Colley